sensor_id;sensor_type;location;lat;lon;timestamp;P1;durP1;ratioP1;P2;durP2;ratioP2
41887;SDS011;63122;52.424;13.458;2023-07-02T00:01:22;6.10;;;2.33;;
41887;SDS011;63122;52.424;13.458;2023-07-02T00:03:19;2.75;;;1.48;;
41887;SDS011;63122;52.424;13.458;2023-07-02T00:05:19;2.30;;;1.80;;
41887;SDS011;63122;52.424;13.458;2023-07-02T00:07:17;2.50;;;1.90;;
41887;SDS011;63122;52.424;13.458;2023-07-02T00:09:16;7.53;;;1.98;;
41887;SDS011;63122;52.424;13.458;2023-07-02T00:11:13;4.05;;;1.95;;
41887;SDS011;63122;52.424;13.458;2023-07-02T00:13:12;8.93;;;2.17;;
41887;SDS011;63122;52.424;13.458;2023-07-02T00:15:24;3.75;;;1.80;;
41887;SDS011;63122;52.424;13.458;2023-07-02T00:17:25;2.53;;;1.70;;
41887;SDS011;63122;52.424;13.458;2023-07-02T00:19:28;4.63;;;1.98;;
41887;SDS011;63122;52.424;13.458;2023-07-02T00:21:24;3.55;;;1.75;;
41887;SDS011;63122;52.424;13.458;2023-07-02T00:23:25;3.25;;;2.05;;
41887;SDS011;63122;52.424;13.458;2023-07-02T00:25:29;2.95;;;1.88;;
41887;SDS011;63122;52.424;13.458;2023-07-02T00:27:24;2.85;;;1.85;;
41887;SDS011;63122;52.424;13.458;2023-07-02T00:29:20;2.25;;;1.90;;
41887;SDS011;63122;52.424;13.458;2023-07-02T00:31:19;4.80;;;1.75;;
41887;SDS011;63122;52.424;13.458;2023-07-02T00:33:24;2.88;;;1.83;;
41887;SDS011;63122;52.424;13.458;2023-07-02T00:35:22;2.10;;;1.80;;
41887;SDS011;63122;52.424;13.458;2023-07-02T00:37:18;3.50;;;1.45;;
41887;SDS011;63122;52.424;13.458;2023-07-02T00:39:16;2.78;;;1.67;;
41887;SDS011;63122;52.424;13.458;2023-07-02T00:41:33;4.28;;;1.58;;
41887;SDS011;63122;52.424;13.458;2023-07-02T00:43:31;5.57;;;1.60;;
41887;SDS011;63122;52.424;13.458;2023-07-02T00:45:34;2.35;;;1.75;;
41887;SDS011;63122;52.424;13.458;2023-07-02T00:47:34;5.72;;;2.00;;
41887;SDS011;63122;52.424;13.458;2023-07-02T00:49:34;2.53;;;1.70;;
41887;SDS011;63122;52.424;13.458;2023-07-02T00:51:43;2.45;;;1.80;;
41887;SDS011;63122;52.424;13.458;2023-07-02T00:53:39;4.28;;;1.80;;
41887;SDS011;63122;52.424;13.458;2023-07-02T00:55:34;2.22;;;2.03;;
41887;SDS011;63122;52.424;13.458;2023-07-02T00:57:29;2.67;;;2.13;;
41887;SDS011;63122;52.424;13.458;2023-07-02T00:59:25;3.65;;;2.35;;
41887;SDS011;63122;52.424;13.458;2023-07-02T01:01:22;3.67;;;2.40;;
41887;SDS011;63122;52.424;13.458;2023-07-02T01:03:17;4.90;;;2.47;;
41887;SDS011;63122;52.424;13.458;2023-07-02T01:05:16;7.07;;;2.75;;
41887;SDS011;63122;52.424;13.458;2023-07-02T01:07:13;3.72;;;2.60;;
41887;SDS011;63122;52.424;13.458;2023-07-02T01:09:09;4.57;;;2.67;;
41887;SDS011;63122;52.424;13.458;2023-07-02T01:11:05;2.90;;;2.50;;
41887;SDS011;63122;52.424;13.458;2023-07-02T01:13:03;5.63;;;2.42;;
41887;SDS011;63122;52.424;13.458;2023-07-02T01:15:03;3.03;;;2.72;;
41887;SDS011;63122;52.424;13.458;2023-07-02T01:17:01;3.67;;;2.58;;
41887;SDS011;63122;52.424;13.458;2023-07-02T01:18:58;2.53;;;2.33;;
41887;SDS011;63122;52.424;13.458;2023-07-02T01:20:58;3.17;;;2.67;;
41887;SDS011;63122;52.424;13.458;2023-07-02T01:22:58;4.55;;;2.72;;
41887;SDS011;63122;52.424;13.458;2023-07-02T01:24:54;7.07;;;2.70;;
41887;SDS011;63122;52.424;13.458;2023-07-02T01:26:50;4.38;;;2.92;;
41887;SDS011;63122;52.424;13.458;2023-07-02T01:28:47;2.83;;;2.53;;
41887;SDS011;63122;52.424;13.458;2023-07-02T01:30:43;5.13;;;2.40;;
41887;SDS011;63122;52.424;13.458;2023-07-02T01:32:38;4.20;;;2.80;;
41887;SDS011;63122;52.424;13.458;2023-07-02T01:34:34;3.35;;;2.50;;
41887;SDS011;63122;52.424;13.458;2023-07-02T01:36:32;4.57;;;3.08;;
41887;SDS011;63122;52.424;13.458;2023-07-02T01:38:27;3.20;;;2.90;;
41887;SDS011;63122;52.424;13.458;2023-07-02T01:40:23;9.02;;;3.33;;
41887;SDS011;63122;52.424;13.458;2023-07-02T01:42:18;4.72;;;3.40;;
41887;SDS011;63122;52.424;13.458;2023-07-02T01:44:14;4.05;;;2.90;;
41887;SDS011;63122;52.424;13.458;2023-07-02T01:46:09;4.30;;;2.90;;
41887;SDS011;63122;52.424;13.458;2023-07-02T01:48:05;3.47;;;3.17;;
41887;SDS011;63122;52.424;13.458;2023-07-02T01:50:01;5.85;;;3.72;;
41887;SDS011;63122;52.424;13.458;2023-07-02T01:52:01;6.50;;;3.50;;
41887;SDS011;63122;52.424;13.458;2023-07-02T01:53:56;4.07;;;3.10;;
41887;SDS011;63122;52.424;13.458;2023-07-02T01:55:51;5.45;;;3.33;;
41887;SDS011;63122;52.424;13.458;2023-07-02T01:57:47;5.05;;;3.70;;
41887;SDS011;63122;52.424;13.458;2023-07-02T01:59:42;9.73;;;3.85;;
41887;SDS011;63122;52.424;13.458;2023-07-02T02:01:37;8.60;;;4.00;;
41887;SDS011;63122;52.424;13.458;2023-07-02T02:03:33;4.68;;;3.97;;
41887;SDS011;63122;52.424;13.458;2023-07-02T02:05:29;6.45;;;5.00;;
41887;SDS011;63122;52.424;13.458;2023-07-02T02:07:27;6.75;;;3.88;;
41887;SDS011;63122;52.424;13.458;2023-07-02T02:09:22;4.78;;;3.90;;
41887;SDS011;63122;52.424;13.458;2023-07-02T02:11:20;7.80;;;4.18;;
41887;SDS011;63122;52.424;13.458;2023-07-02T02:13:15;6.53;;;3.90;;
41887;SDS011;63122;52.424;13.458;2023-07-02T02:15:11;6.45;;;3.85;;
41887;SDS011;63122;52.424;13.458;2023-07-02T02:17:06;6.68;;;3.75;;
41887;SDS011;63122;52.424;13.458;2023-07-02T02:19:01;11.55;;;7.43;;
41887;SDS011;63122;52.424;13.458;2023-07-02T02:20:57;8.15;;;4.32;;
41887;SDS011;63122;52.424;13.458;2023-07-02T02:22:55;7.05;;;4.72;;
41887;SDS011;63122;52.424;13.458;2023-07-02T02:24:51;6.78;;;4.25;;
41887;SDS011;63122;52.424;13.458;2023-07-02T02:26:46;6.07;;;4.18;;
41887;SDS011;63122;52.424;13.458;2023-07-02T02:28:41;5.88;;;4.22;;
41887;SDS011;63122;52.424;13.458;2023-07-02T02:30:37;6.38;;;4.90;;
41887;SDS011;63122;52.424;13.458;2023-07-02T02:32:32;4.32;;;3.92;;
41887;SDS011;63122;52.424;13.458;2023-07-02T02:34:27;6.13;;;3.75;;
41887;SDS011;63122;52.424;13.458;2023-07-02T02:36:23;6.60;;;3.90;;
41887;SDS011;63122;52.424;13.458;2023-07-02T02:38:21;5.90;;;4.40;;
41887;SDS011;63122;52.424;13.458;2023-07-02T02:40:16;4.82;;;4.05;;
41887;SDS011;63122;52.424;13.458;2023-07-02T02:42:12;6.28;;;3.40;;
41887;SDS011;63122;52.424;13.458;2023-07-02T02:44:07;4.45;;;3.17;;
41887;SDS011;63122;52.424;13.458;2023-07-02T02:46:02;4.13;;;3.38;;
41887;SDS011;63122;52.424;13.458;2023-07-02T02:47:57;6.72;;;3.47;;
41887;SDS011;63122;52.424;13.458;2023-07-02T02:49:53;6.03;;;3.40;;
41887;SDS011;63122;52.424;13.458;2023-07-02T02:51:48;4.28;;;3.40;;
41887;SDS011;63122;52.424;13.458;2023-07-02T02:53:46;6.65;;;3.42;;
41887;SDS011;63122;52.424;13.458;2023-07-02T02:55:41;5.97;;;4.00;;
41887;SDS011;63122;52.424;13.458;2023-07-02T02:57:36;7.65;;;3.25;;
41887;SDS011;63122;52.424;13.458;2023-07-02T02:59:32;8.88;;;3.50;;
41887;SDS011;63122;52.424;13.458;2023-07-02T03:01:27;4.93;;;3.58;;
41887;SDS011;63122;52.424;13.458;2023-07-02T03:03:23;5.03;;;3.33;;
41887;SDS011;63122;52.424;13.458;2023-07-02T03:05:18;6.13;;;3.80;;
41887;SDS011;63122;52.424;13.458;2023-07-02T03:07:14;5.53;;;3.33;;
41887;SDS011;63122;52.424;13.458;2023-07-02T03:09:12;7.43;;;3.30;;
41887;SDS011;63122;52.424;13.458;2023-07-02T03:11:07;6.75;;;3.50;;
41887;SDS011;63122;52.424;13.458;2023-07-02T03:13:02;6.60;;;3.20;;
41887;SDS011;63122;52.424;13.458;2023-07-02T03:14:57;6.45;;;3.35;;
41887;SDS011;63122;52.424;13.458;2023-07-02T03:16:53;6.22;;;4.50;;
41887;SDS011;63122;52.424;13.458;2023-07-02T03:18:48;12.93;;;3.50;;
41887;SDS011;63122;52.424;13.458;2023-07-02T03:20:43;6.43;;;3.33;;
41887;SDS011;63122;52.424;13.458;2023-07-02T03:22:39;7.60;;;3.35;;
41887;SDS011;63122;52.424;13.458;2023-07-02T03:24:37;4.85;;;3.13;;
41887;SDS011;63122;52.424;13.458;2023-07-02T03:26:32;6.15;;;3.55;;
41887;SDS011;63122;52.424;13.458;2023-07-02T03:28:27;4.53;;;3.13;;
41887;SDS011;63122;52.424;13.458;2023-07-02T03:30:23;6.50;;;3.03;;
41887;SDS011;63122;52.424;13.458;2023-07-02T03:32:18;9.20;;;3.42;;
41887;SDS011;63122;52.424;13.458;2023-07-02T03:34:14;6.07;;;3.30;;
41887;SDS011;63122;52.424;13.458;2023-07-02T03:36:09;7.07;;;3.30;;
41887;SDS011;63122;52.424;13.458;2023-07-02T03:38:04;10.18;;;3.38;;
41887;SDS011;63122;52.424;13.458;2023-07-02T03:40:03;9.73;;;3.30;;
41887;SDS011;63122;52.424;13.458;2023-07-02T03:41:59;4.20;;;3.28;;
41887;SDS011;63122;52.424;13.458;2023-07-02T03:43:54;5.85;;;3.90;;
41887;SDS011;63122;52.424;13.458;2023-07-02T03:45:49;7.03;;;3.60;;
41887;SDS011;63122;52.424;13.458;2023-07-02T03:47:44;5.68;;;3.92;;
41887;SDS011;63122;52.424;13.458;2023-07-02T03:49:40;5.85;;;3.30;;
41887;SDS011;63122;52.424;13.458;2023-07-02T03:51:35;8.02;;;3.45;;
41887;SDS011;63122;52.424;13.458;2023-07-02T03:53:31;6.22;;;3.28;;
41887;SDS011;63122;52.424;13.458;2023-07-02T03:55:29;8.07;;;3.30;;
41887;SDS011;63122;52.424;13.458;2023-07-02T03:57:24;11.27;;;3.13;;
41887;SDS011;63122;52.424;13.458;2023-07-02T03:59:20;6.53;;;3.45;;
41887;SDS011;63122;52.424;13.458;2023-07-02T04:01:16;4.90;;;2.95;;
41887;SDS011;63122;52.424;13.458;2023-07-02T04:03:11;11.18;;;2.92;;
41887;SDS011;63122;52.424;13.458;2023-07-02T04:05:07;7.78;;;3.10;;
41887;SDS011;63122;52.424;13.458;2023-07-02T04:07:03;5.50;;;2.80;;
41887;SDS011;63122;52.424;13.458;2023-07-02T04:08:59;5.88;;;3.13;;
41887;SDS011;63122;52.424;13.458;2023-07-02T04:10:59;4.43;;;2.90;;
41887;SDS011;63122;52.424;13.458;2023-07-02T04:12:54;4.40;;;2.85;;
41887;SDS011;63122;52.424;13.458;2023-07-02T04:14:50;6.47;;;3.10;;
41887;SDS011;63122;52.424;13.458;2023-07-02T04:16:45;5.78;;;2.70;;
41887;SDS011;63122;52.424;13.458;2023-07-02T04:18:41;7.85;;;3.33;;
41887;SDS011;63122;52.424;13.458;2023-07-02T04:20:36;4.13;;;2.90;;
41887;SDS011;63122;52.424;13.458;2023-07-02T04:22:32;8.35;;;3.33;;
41887;SDS011;63122;52.424;13.458;2023-07-02T04:24:27;9.70;;;3.20;;
41887;SDS011;63122;52.424;13.458;2023-07-02T04:26:26;5.80;;;2.95;;
41887;SDS011;63122;52.424;13.458;2023-07-02T04:28:41;5.55;;;2.63;;
41887;SDS011;63122;52.424;13.458;2023-07-02T04:30:36;7.18;;;3.25;;
41887;SDS011;63122;52.424;13.458;2023-07-02T04:32:31;8.25;;;2.97;;
41887;SDS011;63122;52.424;13.458;2023-07-02T04:34:27;10.27;;;3.53;;
41887;SDS011;63122;52.424;13.458;2023-07-02T04:36:22;5.80;;;2.72;;
41887;SDS011;63122;52.424;13.458;2023-07-02T04:38:17;9.38;;;3.05;;
41887;SDS011;63122;52.424;13.458;2023-07-02T04:40:12;12.35;;;6.75;;
41887;SDS011;63122;52.424;13.458;2023-07-02T04:42:10;4.60;;;2.70;;
41887;SDS011;63122;52.424;13.458;2023-07-02T04:44:07;6.88;;;2.67;;
41887;SDS011;63122;52.424;13.458;2023-07-02T04:46:02;5.25;;;2.80;;
41887;SDS011;63122;52.424;13.458;2023-07-02T04:47:59;6.28;;;2.63;;
41887;SDS011;63122;52.424;13.458;2023-07-02T04:49:55;7.90;;;3.10;;
41887;SDS011;63122;52.424;13.458;2023-07-02T04:51:50;5.03;;;2.97;;
41887;SDS011;63122;52.424;13.458;2023-07-02T04:53:45;4.97;;;3.15;;
41887;SDS011;63122;52.424;13.458;2023-07-02T04:55:41;9.30;;;3.20;;
41887;SDS011;63122;52.424;13.458;2023-07-02T04:57:39;5.90;;;2.70;;
41887;SDS011;63122;52.424;13.458;2023-07-02T04:59:36;6.50;;;3.58;;
41887;SDS011;63122;52.424;13.458;2023-07-02T05:01:31;5.72;;;3.30;;
41887;SDS011;63122;52.424;13.458;2023-07-02T05:03:26;6.93;;;2.72;;
41887;SDS011;63122;52.424;13.458;2023-07-02T05:05:22;4.15;;;2.80;;
41887;SDS011;63122;52.424;13.458;2023-07-02T05:07:17;8.98;;;3.25;;
41887;SDS011;63122;52.424;13.458;2023-07-02T05:09:12;5.15;;;2.88;;
41887;SDS011;63122;52.424;13.458;2023-07-02T05:11:08;4.57;;;2.65;;
41887;SDS011;63122;52.424;13.458;2023-07-02T05:13:05;6.03;;;2.90;;
41887;SDS011;63122;52.424;13.458;2023-07-02T05:15:01;7.13;;;2.80;;
41887;SDS011;63122;52.424;13.458;2023-07-02T05:16:56;4.18;;;2.47;;
41887;SDS011;63122;52.424;13.458;2023-07-02T05:18:52;4.10;;;2.80;;
41887;SDS011;63122;52.424;13.458;2023-07-02T05:20:47;4.35;;;2.35;;
41887;SDS011;63122;52.424;13.458;2023-07-02T05:22:43;3.85;;;2.45;;
41887;SDS011;63122;52.424;13.458;2023-07-02T05:24:38;3.92;;;2.67;;
41887;SDS011;63122;52.424;13.458;2023-07-02T05:26:34;6.68;;;2.95;;
41887;SDS011;63122;52.424;13.458;2023-07-02T05:28:32;5.10;;;3.15;;
41887;SDS011;63122;52.424;13.458;2023-07-02T05:30:27;5.40;;;2.30;;
41887;SDS011;63122;52.424;13.458;2023-07-02T05:32:22;13.82;;;3.10;;
41887;SDS011;63122;52.424;13.458;2023-07-02T05:34:18;7.10;;;3.80;;
41887;SDS011;63122;52.424;13.458;2023-07-02T05:36:13;6.97;;;2.55;;
41887;SDS011;63122;52.424;13.458;2023-07-02T05:38:10;7.57;;;2.80;;
41887;SDS011;63122;52.424;13.458;2023-07-02T05:40:06;5.05;;;3.13;;
41887;SDS011;63122;52.424;13.458;2023-07-02T05:42:05;5.07;;;2.92;;
41887;SDS011;63122;52.424;13.458;2023-07-02T05:44:03;5.03;;;2.70;;
41887;SDS011;63122;52.424;13.458;2023-07-02T05:45:58;5.05;;;3.10;;
41887;SDS011;63122;52.424;13.458;2023-07-02T05:47:54;7.65;;;3.05;;
41887;SDS011;63122;52.424;13.458;2023-07-02T05:49:50;5.03;;;2.95;;
41887;SDS011;63122;52.424;13.458;2023-07-02T05:51:45;4.95;;;2.42;;
41887;SDS011;63122;52.424;13.458;2023-07-02T05:53:40;7.97;;;2.75;;
41887;SDS011;63122;52.424;13.458;2023-07-02T05:55:36;5.28;;;2.97;;
41887;SDS011;63122;52.424;13.458;2023-07-02T05:57:31;8.48;;;2.60;;
41887;SDS011;63122;52.424;13.458;2023-07-02T05:59:29;6.75;;;3.35;;
41887;SDS011;63122;52.424;13.458;2023-07-02T06:01:24;4.63;;;2.80;;
41887;SDS011;63122;52.424;13.458;2023-07-02T06:03:20;5.03;;;2.50;;
41887;SDS011;63122;52.424;13.458;2023-07-02T06:05:15;9.70;;;3.50;;
41887;SDS011;63122;52.424;13.458;2023-07-02T06:07:11;8.85;;;3.10;;
41887;SDS011;63122;52.424;13.458;2023-07-02T06:09:06;6.60;;;3.17;;
41887;SDS011;63122;52.424;13.458;2023-07-02T06:11:01;3.45;;;2.13;;
41887;SDS011;63122;52.424;13.458;2023-07-02T06:12:56;13.63;;;7.55;;
41887;SDS011;63122;52.424;13.458;2023-07-02T06:14:54;9.05;;;4.35;;
41887;SDS011;63122;52.424;13.458;2023-07-02T06:16:50;10.23;;;2.80;;
41887;SDS011;63122;52.424;13.458;2023-07-02T06:18:49;4.90;;;3.15;;
41887;SDS011;63122;52.424;13.458;2023-07-02T06:20:45;4.15;;;2.65;;
41887;SDS011;63122;52.424;13.458;2023-07-02T06:22:41;8.88;;;3.10;;
41887;SDS011;63122;52.424;13.458;2023-07-02T06:24:37;13.23;;;3.15;;
41887;SDS011;63122;52.424;13.458;2023-07-02T06:26:33;6.20;;;2.63;;
41887;SDS011;63122;52.424;13.458;2023-07-02T06:28:28;3.55;;;2.30;;
41887;SDS011;63122;52.424;13.458;2023-07-02T06:30:26;3.33;;;2.20;;
41887;SDS011;63122;52.424;13.458;2023-07-02T06:32:21;14.93;;;3.00;;
41887;SDS011;63122;52.424;13.458;2023-07-02T06:34:17;4.97;;;2.03;;
41887;SDS011;63122;52.424;13.458;2023-07-02T06:36:12;8.90;;;2.70;;
41887;SDS011;63122;52.424;13.458;2023-07-02T06:38:10;7.60;;;3.03;;
41887;SDS011;63122;52.424;13.458;2023-07-02T06:40:05;7.45;;;2.58;;
41887;SDS011;63122;52.424;13.458;2023-07-02T06:42:02;7.60;;;3.58;;
41887;SDS011;63122;52.424;13.458;2023-07-02T06:43:57;7.32;;;3.08;;
41887;SDS011;63122;52.424;13.458;2023-07-02T06:45:55;4.95;;;2.17;;
41887;SDS011;63122;52.424;13.458;2023-07-02T06:47:50;8.77;;;3.03;;
41887;SDS011;63122;52.424;13.458;2023-07-02T06:49:46;7.63;;;2.50;;
41887;SDS011;63122;52.424;13.458;2023-07-02T06:51:41;9.07;;;2.70;;
41887;SDS011;63122;52.424;13.458;2023-07-02T06:53:36;5.10;;;2.83;;
41887;SDS011;63122;52.424;13.458;2023-07-02T06:55:32;5.93;;;2.95;;
41887;SDS011;63122;52.424;13.458;2023-07-02T06:57:27;11.38;;;2.97;;
41887;SDS011;63122;52.424;13.458;2023-07-02T06:59:22;5.47;;;2.25;;
41887;SDS011;63122;52.424;13.458;2023-07-02T07:01:20;5.15;;;1.85;;
41887;SDS011;63122;52.424;13.458;2023-07-02T07:03:15;8.90;;;3.00;;
41887;SDS011;63122;52.424;13.458;2023-07-02T07:05:11;8.80;;;2.80;;
41887;SDS011;63122;52.424;13.458;2023-07-02T07:07:06;8.88;;;2.60;;
41887;SDS011;63122;52.424;13.458;2023-07-02T07:09:02;7.10;;;2.38;;
41887;SDS011;63122;52.424;13.458;2023-07-02T07:10:57;6.22;;;2.03;;
41887;SDS011;63122;52.424;13.458;2023-07-02T07:12:53;3.25;;;2.17;;
41887;SDS011;63122;52.424;13.458;2023-07-02T07:14:48;11.77;;;3.17;;
41887;SDS011;63122;52.424;13.458;2023-07-02T07:16:46;9.23;;;2.70;;
41887;SDS011;63122;52.424;13.458;2023-07-02T07:18:43;7.55;;;2.47;;
41887;SDS011;63122;52.424;13.458;2023-07-02T07:20:41;1.58;;;1.23;;
41887;SDS011;63122;52.424;13.458;2023-07-02T07:22:37;3.95;;;1.83;;
41887;SDS011;63122;52.424;13.458;2023-07-02T07:24:33;6.32;;;2.72;;
41887;SDS011;63122;52.424;13.458;2023-07-02T07:26:28;10.18;;;2.75;;
41887;SDS011;63122;52.424;13.458;2023-07-02T07:28:23;10.15;;;2.95;;
41887;SDS011;63122;52.424;13.458;2023-07-02T07:30:19;6.90;;;2.70;;
41887;SDS011;63122;52.424;13.458;2023-07-02T07:32:19;12.30;;;2.60;;
41887;SDS011;63122;52.424;13.458;2023-07-02T07:34:15;7.32;;;2.80;;
41887;SDS011;63122;52.424;13.458;2023-07-02T07:36:10;3.97;;;2.22;;
41887;SDS011;63122;52.424;13.458;2023-07-02T07:38:06;3.13;;;2.33;;
41887;SDS011;63122;52.424;13.458;2023-07-02T07:40:01;9.25;;;2.95;;
41887;SDS011;63122;52.424;13.458;2023-07-02T07:41:58;9.02;;;2.60;;
41887;SDS011;63122;52.424;13.458;2023-07-02T07:43:53;2.38;;;1.73;;
41887;SDS011;63122;52.424;13.458;2023-07-02T07:45:48;12.32;;;2.55;;
41887;SDS011;63122;52.424;13.458;2023-07-02T07:47:46;7.25;;;2.20;;
41887;SDS011;63122;52.424;13.458;2023-07-02T07:49:42;5.50;;;2.95;;
41887;SDS011;63122;52.424;13.458;2023-07-02T07:51:37;6.07;;;2.95;;
41887;SDS011;63122;52.424;13.458;2023-07-02T07:53:32;3.40;;;2.15;;
41887;SDS011;63122;52.424;13.458;2023-07-02T07:55:28;7.88;;;3.38;;
41887;SDS011;63122;52.424;13.458;2023-07-02T07:57:23;2.08;;;1.67;;
41887;SDS011;63122;52.424;13.458;2023-07-02T07:59:18;6.18;;;2.60;;
41887;SDS011;63122;52.424;13.458;2023-07-02T08:01:13;5.43;;;2.30;;
41887;SDS011;63122;52.424;13.458;2023-07-02T08:03:12;5.82;;;2.10;;
41887;SDS011;63122;52.424;13.458;2023-07-02T08:05:07;7.50;;;3.20;;
41887;SDS011;63122;52.424;13.458;2023-07-02T08:07:02;6.82;;;3.65;;
41887;SDS011;63122;52.424;13.458;2023-07-02T08:09:00;3.13;;;2.28;;
41887;SDS011;63122;52.424;13.458;2023-07-02T08:10:56;11.98;;;2.70;;
41887;SDS011;63122;52.424;13.458;2023-07-02T08:12:51;3.67;;;2.30;;
41887;SDS011;63122;52.424;13.458;2023-07-02T08:14:46;3.38;;;2.00;;
41887;SDS011;63122;52.424;13.458;2023-07-02T08:16:42;3.08;;;1.50;;
41887;SDS011;63122;52.424;13.458;2023-07-02T08:18:39;1.85;;;1.40;;
41887;SDS011;63122;52.424;13.458;2023-07-02T08:20:35;3.53;;;2.42;;
41887;SDS011;63122;52.424;13.458;2023-07-02T08:22:30;3.33;;;2.50;;
41887;SDS011;63122;52.424;13.458;2023-07-02T08:24:26;8.02;;;2.63;;
41887;SDS011;63122;52.424;13.458;2023-07-02T08:26:22;2.90;;;2.17;;
41887;SDS011;63122;52.424;13.458;2023-07-02T08:28:18;5.10;;;2.83;;
41887;SDS011;63122;52.424;13.458;2023-07-02T08:30:13;7.90;;;2.67;;
41887;SDS011;63122;52.424;13.458;2023-07-02T08:32:09;6.22;;;2.63;;
41887;SDS011;63122;52.424;13.458;2023-07-02T08:34:07;6.50;;;2.67;;
41887;SDS011;63122;52.424;13.458;2023-07-02T08:36:03;5.07;;;2.78;;
41887;SDS011;63122;52.424;13.458;2023-07-02T08:37:59;5.00;;;2.92;;
41887;SDS011;63122;52.424;13.458;2023-07-02T08:39:55;5.68;;;3.17;;
41887;SDS011;63122;52.424;13.458;2023-07-02T08:41:50;8.85;;;3.72;;
41887;SDS011;63122;52.424;13.458;2023-07-02T08:43:45;7.50;;;3.22;;
41887;SDS011;63122;52.424;13.458;2023-07-02T08:45:42;6.75;;;3.42;;
41887;SDS011;63122;52.424;13.458;2023-07-02T08:47:37;6.28;;;3.72;;
41887;SDS011;63122;52.424;13.458;2023-07-02T08:49:35;8.48;;;3.33;;
41887;SDS011;63122;52.424;13.458;2023-07-02T08:51:31;9.18;;;3.53;;
41887;SDS011;63122;52.424;13.458;2023-07-02T08:53:26;13.65;;;3.45;;
41887;SDS011;63122;52.424;13.458;2023-07-02T08:55:25;8.43;;;3.65;;
41887;SDS011;63122;52.424;13.458;2023-07-02T08:57:21;4.75;;;2.85;;
41887;SDS011;63122;52.424;13.458;2023-07-02T08:59:17;9.07;;;4.07;;
41887;SDS011;63122;52.424;13.458;2023-07-02T09:01:13;7.25;;;3.35;;
41887;SDS011;63122;52.424;13.458;2023-07-02T09:03:12;5.55;;;2.90;;
41887;SDS011;63122;52.424;13.458;2023-07-02T09:05:12;3.65;;;2.50;;
41887;SDS011;63122;52.424;13.458;2023-07-02T09:07:07;9.80;;;3.75;;
41887;SDS011;63122;52.424;13.458;2023-07-02T09:09:04;9.70;;;4.05;;
41887;SDS011;63122;52.424;13.458;2023-07-02T09:11:08;6.97;;;2.78;;
41887;SDS011;63122;52.424;13.458;2023-07-02T09:13:04;9.27;;;3.90;;
41887;SDS011;63122;52.424;13.458;2023-07-02T09:15:03;6.18;;;2.70;;
41887;SDS011;63122;52.424;13.458;2023-07-02T09:17:03;8.38;;;3.78;;
41887;SDS011;63122;52.424;13.458;2023-07-02T09:19:01;11.45;;;4.00;;
41887;SDS011;63122;52.424;13.458;2023-07-02T09:21:02;12.18;;;3.92;;
41887;SDS011;63122;52.424;13.458;2023-07-02T09:22:58;6.35;;;3.00;;
41887;SDS011;63122;52.424;13.458;2023-07-02T09:24:53;8.70;;;4.13;;
41887;SDS011;63122;52.424;13.458;2023-07-02T09:26:50;7.13;;;3.70;;
41887;SDS011;63122;52.424;13.458;2023-07-02T09:28:46;8.77;;;3.60;;
41887;SDS011;63122;52.424;13.458;2023-07-02T09:30:52;6.75;;;3.40;;
41887;SDS011;63122;52.424;13.458;2023-07-02T09:32:48;5.43;;;2.92;;
41887;SDS011;63122;52.424;13.458;2023-07-02T09:34:45;7.82;;;3.72;;
41887;SDS011;63122;52.424;13.458;2023-07-02T09:36:43;7.07;;;3.80;;
41887;SDS011;63122;52.424;13.458;2023-07-02T09:38:38;9.15;;;3.90;;
41887;SDS011;63122;52.424;13.458;2023-07-02T09:40:34;6.55;;;3.63;;
41887;SDS011;63122;52.424;13.458;2023-07-02T09:42:32;9.43;;;3.60;;
41887;SDS011;63122;52.424;13.458;2023-07-02T09:44:30;9.60;;;4.20;;
41887;SDS011;63122;52.424;13.458;2023-07-02T09:46:26;7.20;;;3.50;;
41887;SDS011;63122;52.424;13.458;2023-07-02T09:48:23;7.28;;;3.78;;
41887;SDS011;63122;52.424;13.458;2023-07-02T09:50:20;5.38;;;2.28;;
41887;SDS011;63122;52.424;13.458;2023-07-02T09:52:19;7.15;;;3.50;;
41887;SDS011;63122;52.424;13.458;2023-07-02T09:54:15;6.60;;;3.38;;
41887;SDS011;63122;52.424;13.458;2023-07-02T09:56:12;8.27;;;2.90;;
41887;SDS011;63122;52.424;13.458;2023-07-02T09:58:07;9.30;;;3.83;;
41887;SDS011;63122;52.424;13.458;2023-07-02T10:00:04;5.57;;;3.28;;
41887;SDS011;63122;52.424;13.458;2023-07-02T10:02:00;11.60;;;3.45;;
41887;SDS011;63122;52.424;13.458;2023-07-02T10:03:55;7.45;;;3.22;;
41887;SDS011;63122;52.424;13.458;2023-07-02T10:05:51;11.43;;;4.07;;
41887;SDS011;63122;52.424;13.458;2023-07-02T10:08:12;7.40;;;3.88;;
41887;SDS011;63122;52.424;13.458;2023-07-02T10:10:10;6.80;;;3.90;;
41887;SDS011;63122;52.424;13.458;2023-07-02T10:12:17;6.72;;;3.47;;
41887;SDS011;63122;52.424;13.458;2023-07-02T10:14:14;9.77;;;5.05;;
41887;SDS011;63122;52.424;13.458;2023-07-02T10:16:09;9.18;;;3.08;;
41887;SDS011;63122;52.424;13.458;2023-07-02T10:18:05;10.00;;;4.32;;
41887;SDS011;63122;52.424;13.458;2023-07-02T10:20:01;11.43;;;5.10;;
41887;SDS011;63122;52.424;13.458;2023-07-02T10:22:02;11.32;;;4.80;;
41887;SDS011;63122;52.424;13.458;2023-07-02T10:24:11;7.63;;;3.17;;
41887;SDS011;63122;52.424;13.458;2023-07-02T10:26:10;10.95;;;4.63;;
41887;SDS011;63122;52.424;13.458;2023-07-02T10:28:16;10.55;;;4.68;;
41887;SDS011;63122;52.424;13.458;2023-07-02T10:30:14;11.30;;;5.07;;
41887;SDS011;63122;52.424;13.458;2023-07-02T10:32:10;16.85;;;4.82;;
41887;SDS011;63122;52.424;13.458;2023-07-02T10:34:05;13.13;;;5.30;;
41887;SDS011;63122;52.424;13.458;2023-07-02T10:36:00;15.63;;;5.28;;
41887;SDS011;63122;52.424;13.458;2023-07-02T10:37:55;16.77;;;6.03;;
41887;SDS011;63122;52.424;13.458;2023-07-02T10:39:53;10.63;;;4.65;;
41887;SDS011;63122;52.424;13.458;2023-07-02T10:41:49;14.32;;;5.90;;
41887;SDS011;63122;52.424;13.458;2023-07-02T10:43:45;9.60;;;4.78;;
41887;SDS011;63122;52.424;13.458;2023-07-02T10:45:43;13.88;;;5.13;;
41887;SDS011;63122;52.424;13.458;2023-07-02T10:47:39;17.47;;;6.10;;
41887;SDS011;63122;52.424;13.458;2023-07-02T10:49:35;11.05;;;4.50;;
41887;SDS011;63122;52.424;13.458;2023-07-02T10:51:30;10.52;;;5.55;;
41887;SDS011;63122;52.424;13.458;2023-07-02T10:53:26;13.05;;;5.05;;
41887;SDS011;63122;52.424;13.458;2023-07-02T10:55:26;17.25;;;5.93;;
41887;SDS011;63122;52.424;13.458;2023-07-02T10:57:23;12.70;;;4.63;;
41887;SDS011;63122;52.424;13.458;2023-07-02T10:59:23;13.10;;;5.10;;
41887;SDS011;63122;52.424;13.458;2023-07-02T11:01:22;13.88;;;5.60;;
41887;SDS011;63122;52.424;13.458;2023-07-02T11:03:19;13.55;;;4.43;;
41887;SDS011;63122;52.424;13.458;2023-07-02T11:05:15;12.10;;;6.07;;
41887;SDS011;63122;52.424;13.458;2023-07-02T11:07:13;18.13;;;5.78;;
41887;SDS011;63122;52.424;13.458;2023-07-02T11:09:15;11.52;;;5.65;;
41887;SDS011;63122;52.424;13.458;2023-07-02T11:11:15;12.23;;;5.55;;
41887;SDS011;63122;52.424;13.458;2023-07-02T11:13:11;17.55;;;6.45;;
41887;SDS011;63122;52.424;13.458;2023-07-02T11:15:07;11.60;;;4.15;;
41887;SDS011;63122;52.424;13.458;2023-07-02T11:17:03;18.75;;;5.88;;
41887;SDS011;63122;52.424;13.458;2023-07-02T11:19:07;15.13;;;5.47;;
41887;SDS011;63122;52.424;13.458;2023-07-02T11:21:08;17.60;;;6.25;;
41887;SDS011;63122;52.424;13.458;2023-07-02T11:23:04;17.05;;;5.97;;
41887;SDS011;63122;52.424;13.458;2023-07-02T11:25:08;17.88;;;6.22;;
41887;SDS011;63122;52.424;13.458;2023-07-02T11:27:20;14.20;;;5.72;;
41887;SDS011;63122;52.424;13.458;2023-07-02T11:29:17;21.52;;;6.43;;
41887;SDS011;63122;52.424;13.458;2023-07-02T11:31:13;13.52;;;5.60;;
41887;SDS011;63122;52.424;13.458;2023-07-02T11:33:09;16.35;;;6.35;;